sensor_id;sensor_type;location;lat;lon;timestamp;P1;durP1;ratioP1;P2;durP2;ratioP2
69220;SDS011;56331;51.992;20.910;2022-07-25T00:01:26;2.40;;;1.90;;
69220;SDS011;56331;51.992;20.910;2022-07-25T00:03:53;1.82;;;1.37;;
69220;SDS011;56331;51.992;20.910;2022-07-25T00:06:19;1.52;;;1.40;;
69220;SDS011;56331;51.992;20.910;2022-07-25T00:08:46;1.70;;;1.50;;
69220;SDS011;56331;51.992;20.910;2022-07-25T00:11:13;1.50;;;1.40;;
69220;SDS011;56331;51.992;20.910;2022-07-25T00:13:39;1.50;;;1.40;;
69220;SDS011;56331;51.992;20.910;2022-07-25T00:16:06;2.92;;;1.55;;
69220;SDS011;56331;51.992;20.910;2022-07-25T00:18:32;1.65;;;1.37;;
69220;SDS011;56331;51.992;20.910;2022-07-25T00:20:59;1.98;;;1.40;;
69220;SDS011;56331;51.992;20.910;2022-07-25T00:23:26;1.92;;;1.72;;
69220;SDS011;56331;51.992;20.910;2022-07-25T00:25:52;1.95;;;1.45;;
69220;SDS011;56331;51.992;20.910;2022-07-25T00:28:19;1.67;;;1.42;;
69220;SDS011;56331;51.992;20.910;2022-07-25T00:30:46;1.72;;;1.55;;
69220;SDS011;56331;51.992;20.910;2022-07-25T00:33:13;1.80;;;1.42;;
69220;SDS011;56331;51.992;20.910;2022-07-25T00:35:40;1.77;;;1.42;;
69220;SDS011;56331;51.992;20.910;2022-07-25T00:38:06;1.60;;;1.50;;
69220;SDS011;56331;51.992;20.910;2022-07-25T00:40:34;2.12;;;1.47;;
69220;SDS011;56331;51.992;20.910;2022-07-25T00:43:03;1.55;;;1.37;;
69220;SDS011;56331;51.992;20.910;2022-07-25T00:45:30;2.35;;;1.55;;
69220;SDS011;56331;51.992;20.910;2022-07-25T00:47:57;1.45;;;1.35;;
69220;SDS011;56331;51.992;20.910;2022-07-25T00:50:23;1.32;;;1.22;;
69220;SDS011;56331;51.992;20.910;2022-07-25T00:52:50;2.02;;;1.60;;
69220;SDS011;56331;51.992;20.910;2022-07-25T00:55:17;1.20;;;1.10;;
69220;SDS011;56331;51.992;20.910;2022-07-25T00:57:45;1.57;;;1.40;;
69220;SDS011;56331;51.992;20.910;2022-07-25T01:03:52;1.50;;;1.40;;
69220;SDS011;56331;51.992;20.910;2022-07-25T01:06:19;1.60;;;1.30;;
69220;SDS011;56331;51.992;20.910;2022-07-25T01:08:46;1.80;;;1.45;;
69220;SDS011;56331;51.992;20.910;2022-07-25T01:11:15;1.65;;;1.50;;
69220;SDS011;56331;51.992;20.910;2022-07-25T01:13:42;1.50;;;1.37;;
69220;SDS011;56331;51.992;20.910;2022-07-25T01:16:08;1.30;;;1.20;;
69220;SDS011;56331;51.992;20.910;2022-07-25T01:18:35;2.27;;;1.60;;
69220;SDS011;56331;51.992;20.910;2022-07-25T01:21:03;2.30;;;1.60;;
69220;SDS011;56331;51.992;20.910;2022-07-25T01:23:30;1.70;;;1.40;;
69220;SDS011;56331;51.992;20.910;2022-07-25T01:25:57;1.80;;;1.50;;
69220;SDS011;56331;51.992;20.910;2022-07-25T01:28:24;1.87;;;1.40;;
69220;SDS011;56331;51.992;20.910;2022-07-25T01:30:51;1.72;;;1.47;;
69220;SDS011;56331;51.992;20.910;2022-07-25T01:33:18;1.62;;;1.50;;
69220;SDS011;56331;51.992;20.910;2022-07-25T01:35:46;2.10;;;1.60;;
69220;SDS011;56331;51.992;20.910;2022-07-25T01:38:14;2.77;;;1.30;;
69220;SDS011;56331;51.992;20.910;2022-07-25T01:40:41;1.90;;;1.42;;
69220;SDS011;56331;51.992;20.910;2022-07-25T01:43:09;2.10;;;1.60;;
69220;SDS011;56331;51.992;20.910;2022-07-25T01:45:36;1.75;;;1.47;;
69220;SDS011;56331;51.992;20.910;2022-07-25T01:48:03;1.85;;;1.10;;
69220;SDS011;56331;51.992;20.910;2022-07-25T01:50:29;1.35;;;1.25;;
69220;SDS011;56331;51.992;20.910;2022-07-25T01:52:56;2.72;;;1.60;;
69220;SDS011;56331;51.992;20.910;2022-07-25T01:55:23;2.37;;;1.37;;
69220;SDS011;56331;51.992;20.910;2022-07-25T01:57:50;1.75;;;1.55;;
69220;SDS011;56331;51.992;20.910;2022-07-25T02:00:18;1.60;;;1.40;;
69220;SDS011;56331;51.992;20.910;2022-07-25T02:02:45;2.20;;;1.70;;
69220;SDS011;56331;51.992;20.910;2022-07-25T02:05:13;1.70;;;1.40;;
69220;SDS011;56331;51.992;20.910;2022-07-25T02:07:40;1.50;;;1.20;;
69220;SDS011;56331;51.992;20.910;2022-07-25T02:10:07;1.47;;;1.37;;
69220;SDS011;56331;51.992;20.910;2022-07-25T02:12:34;1.82;;;1.40;;
69220;SDS011;56331;51.992;20.910;2022-07-25T02:15:01;3.12;;;1.30;;
69220;SDS011;56331;51.992;20.910;2022-07-25T02:17:28;1.30;;;1.20;;
69220;SDS011;56331;51.992;20.910;2022-07-25T02:19:56;1.50;;;1.40;;
69220;SDS011;56331;51.992;20.910;2022-07-25T02:22:23;1.57;;;1.40;;
69220;SDS011;56331;51.992;20.910;2022-07-25T02:24:49;1.30;;;1.20;;
69220;SDS011;56331;51.992;20.910;2022-07-25T02:27:16;1.50;;;1.40;;
69220;SDS011;56331;51.992;20.910;2022-07-25T02:29:43;1.60;;;1.40;;
69220;SDS011;56331;51.992;20.910;2022-07-25T02:32:10;1.50;;;1.40;;
69220;SDS011;56331;51.992;20.910;2022-07-25T02:34:36;1.72;;;1.40;;
69220;SDS011;56331;51.992;20.910;2022-07-25T02:37:03;1.60;;;1.20;;
69220;SDS011;56331;51.992;20.910;2022-07-25T02:39:29;1.87;;;1.47;;
69220;SDS011;56331;51.992;20.910;2022-07-25T02:41:56;1.70;;;1.37;;
69220;SDS011;56331;51.992;20.910;2022-07-25T02:44:23;1.45;;;1.32;;
69220;SDS011;56331;51.992;20.910;2022-07-25T02:46:50;2.02;;;0.98;;
69220;SDS011;56331;51.992;20.910;2022-07-25T02:49:16;1.25;;;1.15;;
69220;SDS011;56331;51.992;20.910;2022-07-25T02:51:43;1.27;;;1.10;;
69220;SDS011;56331;51.992;20.910;2022-07-25T02:54:14;1.30;;;1.20;;
69220;SDS011;56331;51.992;20.910;2022-07-25T02:56:41;1.45;;;1.27;;
69220;SDS011;56331;51.992;20.910;2022-07-25T02:59:07;1.80;;;1.45;;
69220;SDS011;56331;51.992;20.910;2022-07-25T03:01:33;1.45;;;1.30;;
69220;SDS011;56331;51.992;20.910;2022-07-25T03:04:00;1.52;;;1.35;;
69220;SDS011;56331;51.992;20.910;2022-07-25T03:06:26;1.70;;;1.20;;
69220;SDS011;56331;51.992;20.910;2022-07-25T03:08:53;1.20;;;1.10;;
69220;SDS011;56331;51.992;20.910;2022-07-25T03:11:19;1.40;;;1.17;;
69220;SDS011;56331;51.992;20.910;2022-07-25T03:13:46;1.67;;;1.50;;
69220;SDS011;56331;51.992;20.910;2022-07-25T03:16:13;1.50;;;1.12;;
69220;SDS011;56331;51.992;20.910;2022-07-25T03:18:41;1.20;;;1.10;;
69220;SDS011;56331;51.992;20.910;2022-07-25T03:21:07;1.30;;;1.20;;
69220;SDS011;56331;51.992;20.910;2022-07-25T03:23:34;1.72;;;1.40;;
69220;SDS011;56331;51.992;20.910;2022-07-25T03:26:00;1.30;;;1.20;;
69220;SDS011;56331;51.992;20.910;2022-07-25T03:28:27;1.30;;;1.20;;
69220;SDS011;56331;51.992;20.910;2022-07-25T03:30:53;2.12;;;1.42;;
69220;SDS011;56331;51.992;20.910;2022-07-25T03:33:20;1.62;;;1.10;;
69220;SDS011;56331;51.992;20.910;2022-07-25T03:35:46;1.42;;;1.25;;
69220;SDS011;56331;51.992;20.910;2022-07-25T03:38:13;1.47;;;1.37;;
69220;SDS011;56331;51.992;20.910;2022-07-25T03:40:39;1.30;;;1.20;;
69220;SDS011;56331;51.992;20.910;2022-07-25T03:43:06;1.30;;;1.20;;
69220;SDS011;56331;51.992;20.910;2022-07-25T03:45:32;1.72;;;1.30;;
69220;SDS011;56331;51.992;20.910;2022-07-25T03:47:59;1.72;;;1.40;;
69220;SDS011;56331;51.992;20.910;2022-07-25T03:50:25;1.20;;;1.10;;
69220;SDS011;56331;51.992;20.910;2022-07-25T03:52:52;1.20;;;1.10;;
69220;SDS011;56331;51.992;20.910;2022-07-25T03:55:18;1.25;;;1.15;;
69220;SDS011;56331;51.992;20.910;2022-07-25T03:57:45;1.30;;;1.20;;
69220;SDS011;56331;51.992;20.910;2022-07-25T04:03:07;1.30;;;1.20;;
69220;SDS011;56331;51.992;20.910;2022-07-25T04:05:35;1.30;;;1.00;;
69220;SDS011;56331;51.992;20.910;2022-07-25T04:08:02;1.60;;;1.30;;
69220;SDS011;56331;51.992;20.910;2022-07-25T04:10:29;1.17;;;1.07;;
69220;SDS011;56331;51.992;20.910;2022-07-25T04:12:56;1.70;;;1.30;;
69220;SDS011;56331;51.992;20.910;2022-07-25T04:15:23;1.60;;;1.30;;
69220;SDS011;56331;51.992;20.910;2022-07-25T04:17:50;1.45;;;1.35;;
69220;SDS011;56331;51.992;20.910;2022-07-25T04:20:17;2.05;;;1.02;;
69220;SDS011;56331;51.992;20.910;2022-07-25T04:22:43;2.22;;;1.00;;
69220;SDS011;56331;51.992;20.910;2022-07-25T04:25:11;1.57;;;1.30;;
69220;SDS011;56331;51.992;20.910;2022-07-25T04:27:38;2.02;;;1.10;;
69220;SDS011;56331;51.992;20.910;2022-07-25T04:30:06;1.17;;;1.07;;
69220;SDS011;56331;51.992;20.910;2022-07-25T04:32:33;1.60;;;1.20;;
69220;SDS011;56331;51.992;20.910;2022-07-25T04:35:00;1.30;;;1.20;;
69220;SDS011;56331;51.992;20.910;2022-07-25T04:37:27;1.80;;;1.20;;
69220;SDS011;56331;51.992;20.910;2022-07-25T04:39:54;1.20;;;1.07;;
69220;SDS011;56331;51.992;20.910;2022-07-25T04:42:21;1.50;;;1.22;;
69220;SDS011;56331;51.992;20.910;2022-07-25T04:44:48;1.77;;;1.27;;
69220;SDS011;56331;51.992;20.910;2022-07-25T04:47:15;1.98;;;1.10;;
69220;SDS011;56331;51.992;20.910;2022-07-25T04:49:41;1.40;;;1.20;;
69220;SDS011;56331;51.992;20.910;2022-07-25T04:52:08;1.37;;;1.15;;
69220;SDS011;56331;51.992;20.910;2022-07-25T04:54:35;1.55;;;1.10;;
69220;SDS011;56331;51.992;20.910;2022-07-25T04:57:02;1.62;;;1.30;;
69220;SDS011;56331;51.992;20.910;2022-07-25T04:59:30;1.42;;;1.20;;
69220;SDS011;56331;51.992;20.910;2022-07-25T05:01:57;1.50;;;1.20;;
69220;SDS011;56331;51.992;20.910;2022-07-25T05:04:24;1.50;;;1.25;;
69220;SDS011;56331;51.992;20.910;2022-07-25T05:06:50;1.30;;;1.10;;
69220;SDS011;56331;51.992;20.910;2022-07-25T05:09:17;1.35;;;1.25;;
69220;SDS011;56331;51.992;20.910;2022-07-25T05:11:43;1.87;;;1.00;;
69220;SDS011;56331;51.992;20.910;2022-07-25T05:14:09;2.12;;;1.62;;
69220;SDS011;56331;51.992;20.910;2022-07-25T05:16:36;1.10;;;1.00;;
69220;SDS011;56331;51.992;20.910;2022-07-25T05:19:03;1.27;;;1.17;;
69220;SDS011;56331;51.992;20.910;2022-07-25T05:21:30;1.40;;;1.25;;
69220;SDS011;56331;51.992;20.910;2022-07-25T05:23:57;1.60;;;1.20;;
69220;SDS011;56331;51.992;20.910;2022-07-25T05:26:23;1.47;;;1.20;;
69220;SDS011;56331;51.992;20.910;2022-07-25T05:28:50;1.98;;;1.45;;
69220;SDS011;56331;51.992;20.910;2022-07-25T05:31:16;1.30;;;1.10;;
69220;SDS011;56331;51.992;20.910;2022-07-25T05:33:44;2.12;;;1.25;;
69220;SDS011;56331;51.992;20.910;2022-07-25T05:36:10;1.10;;;0.95;;
69220;SDS011;56331;51.992;20.910;2022-07-25T05:38:37;1.25;;;1.15;;
69220;SDS011;56331;51.992;20.910;2022-07-25T05:41:04;2.40;;;1.30;;
69220;SDS011;56331;51.992;20.910;2022-07-25T05:43:30;1.45;;;1.20;;
69220;SDS011;56331;51.992;20.910;2022-07-25T05:48:26;1.77;;;1.17;;
69220;SDS011;56331;51.992;20.910;2022-07-25T05:50:53;4.33;;;1.40;;
69220;SDS011;56331;51.992;20.910;2022-07-25T05:53:20;2.45;;;1.15;;
69220;SDS011;56331;51.992;20.910;2022-07-25T05:55:47;1.30;;;1.20;;
69220;SDS011;56331;51.992;20.910;2022-07-25T05:58:14;1.67;;;1.30;;
69220;SDS011;56331;51.992;20.910;2022-07-25T06:00:40;1.22;;;1.10;;
69220;SDS011;56331;51.992;20.910;2022-07-25T06:03:07;1.60;;;1.20;;
69220;SDS011;56331;51.992;20.910;2022-07-25T06:05:33;2.35;;;1.40;;
69220;SDS011;56331;51.992;20.910;2022-07-25T06:08:00;1.57;;;1.32;;
69220;SDS011;56331;51.992;20.910;2022-07-25T06:10:27;1.50;;;1.40;;
69220;SDS011;56331;51.992;20.910;2022-07-25T06:12:53;4.55;;;1.60;;
69220;SDS011;56331;51.992;20.910;2022-07-25T06:15:20;2.90;;;1.67;;
69220;SDS011;56331;51.992;20.910;2022-07-25T06:17:47;2.20;;;1.52;;
69220;SDS011;56331;51.992;20.910;2022-07-25T06:20:14;3.30;;;1.80;;
69220;SDS011;56331;51.992;20.910;2022-07-25T06:22:41;2.35;;;1.70;;
69220;SDS011;56331;51.992;20.910;2022-07-25T06:25:08;3.70;;;1.87;;
69220;SDS011;56331;51.992;20.910;2022-07-25T06:27:36;1.87;;;1.67;;
69220;SDS011;56331;51.992;20.910;2022-07-25T06:30:05;2.45;;;1.65;;
69220;SDS011;56331;51.992;20.910;2022-07-25T06:32:33;1.75;;;1.57;;
69220;SDS011;56331;51.992;20.910;2022-07-25T06:35:01;2.83;;;1.70;;
69220;SDS011;56331;51.992;20.910;2022-07-25T06:37:27;4.03;;;2.02;;
69220;SDS011;56331;51.992;20.910;2022-07-25T06:39:54;1.62;;;1.52;;
69220;SDS011;56331;51.992;20.910;2022-07-25T06:42:21;1.98;;;1.50;;
69220;SDS011;56331;51.992;20.910;2022-07-25T06:44:47;2.27;;;1.70;;
69220;SDS011;56331;51.992;20.910;2022-07-25T06:47:15;2.00;;;1.70;;
69220;SDS011;56331;51.992;20.910;2022-07-25T06:49:42;2.15;;;1.82;;
69220;SDS011;56331;51.992;20.910;2022-07-25T06:52:09;3.20;;;1.90;;
69220;SDS011;56331;51.992;20.910;2022-07-25T06:54:36;2.00;;;1.80;;
69220;SDS011;56331;51.992;20.910;2022-07-25T06:57:03;2.80;;;2.08;;
69220;SDS011;56331;51.992;20.910;2022-07-25T06:59:31;1.82;;;1.62;;
69220;SDS011;56331;51.992;20.910;2022-07-25T07:01:58;2.60;;;2.15;;
69220;SDS011;56331;51.992;20.910;2022-07-25T07:04:26;3.40;;;1.70;;
69220;SDS011;56331;51.992;20.910;2022-07-25T07:06:52;2.67;;;1.77;;
69220;SDS011;56331;51.992;20.910;2022-07-25T07:09:18;2.20;;;1.82;;
69220;SDS011;56331;51.992;20.910;2022-07-25T07:11:45;5.85;;;2.30;;
69220;SDS011;56331;51.992;20.910;2022-07-25T07:14:12;2.37;;;1.65;;
69220;SDS011;56331;51.992;20.910;2022-07-25T07:16:38;3.20;;;2.20;;
69220;SDS011;56331;51.992;20.910;2022-07-25T07:19:06;3.02;;;1.82;;
69220;SDS011;56331;51.992;20.910;2022-07-25T07:21:35;2.45;;;2.00;;
69220;SDS011;56331;51.992;20.910;2022-07-25T07:24:03;2.25;;;1.80;;
69220;SDS011;56331;51.992;20.910;2022-07-25T07:26:30;2.85;;;2.00;;
69220;SDS011;56331;51.992;20.910;2022-07-25T07:28:57;2.35;;;1.82;;
69220;SDS011;56331;51.992;20.910;2022-07-25T07:31:28;2.87;;;2.00;;
69220;SDS011;56331;51.992;20.910;2022-07-25T07:33:55;2.65;;;1.72;;
69220;SDS011;56331;51.992;20.910;2022-07-25T07:36:24;1.98;;;1.72;;
69220;SDS011;56331;51.992;20.910;2022-07-25T07:38:51;3.50;;;1.80;;
69220;SDS011;56331;51.992;20.910;2022-07-25T07:41:17;2.95;;;1.90;;
69220;SDS011;56331;51.992;20.910;2022-07-25T07:43:44;3.35;;;2.00;;
69220;SDS011;56331;51.992;20.910;2022-07-25T07:46:11;2.85;;;2.15;;
69220;SDS011;56331;51.992;20.910;2022-07-25T07:48:38;3.50;;;1.90;;
69220;SDS011;56331;51.992;20.910;2022-07-25T07:51:05;2.22;;;1.98;;
69220;SDS011;56331;51.992;20.910;2022-07-25T07:53:32;4.80;;;2.10;;
69220;SDS011;56331;51.992;20.910;2022-07-25T07:56:17;2.12;;;1.85;;
69220;SDS011;56331;51.992;20.910;2022-07-25T07:58:44;4.65;;;1.80;;
69220;SDS011;56331;51.992;20.910;2022-07-25T08:01:11;2.45;;;1.90;;
69220;SDS011;56331;51.992;20.910;2022-07-25T08:03:38;3.45;;;1.67;;
69220;SDS011;56331;51.992;20.910;2022-07-25T08:06:05;2.37;;;1.80;;
69220;SDS011;56331;51.992;20.910;2022-07-25T08:08:33;3.37;;;1.80;;
69220;SDS011;56331;51.992;20.910;2022-07-25T08:10:59;2.70;;;1.72;;
69220;SDS011;56331;51.992;20.910;2022-07-25T08:13:29;1.98;;;1.70;;
69220;SDS011;56331;51.992;20.910;2022-07-25T08:15:59;3.47;;;2.00;;
69220;SDS011;56331;51.992;20.910;2022-07-25T08:18:28;2.33;;;1.92;;
69220;SDS011;56331;51.992;20.910;2022-07-25T08:20:58;2.45;;;2.05;;
69220;SDS011;56331;51.992;20.910;2022-07-25T08:23:27;2.72;;;1.80;;
69220;SDS011;56331;51.992;20.910;2022-07-25T08:25:57;2.10;;;1.83;;
69220;SDS011;56331;51.992;20.910;2022-07-25T08:28:25;4.05;;;1.80;;
69220;SDS011;56331;51.992;20.910;2022-07-25T08:30:53;2.05;;;1.62;;
69220;SDS011;56331;51.992;20.910;2022-07-25T08:33:19;2.27;;;1.65;;
69220;SDS011;56331;51.992;20.910;2022-07-25T08:38:17;3.67;;;2.02;;
69220;SDS011;56331;51.992;20.910;2022-07-25T08:40:44;2.90;;;1.70;;
69220;SDS011;56331;51.992;20.910;2022-07-25T08:43:14;2.20;;;1.90;;
69220;SDS011;56331;51.992;20.910;2022-07-25T08:50:50;3.17;;;1.85;;
69220;SDS011;56331;51.992;20.910;2022-07-25T08:53:19;1.80;;;1.50;;
69220;SDS011;56331;51.992;20.910;2022-07-25T08:55:46;2.37;;;1.77;;
69220;SDS011;56331;51.992;20.910;2022-07-25T08:58:14;2.15;;;1.65;;
69220;SDS011;56331;51.992;20.910;2022-07-25T09:00:41;3.67;;;2.00;;
69220;SDS011;56331;51.992;20.910;2022-07-25T09:03:10;3.90;;;1.87;;
69220;SDS011;56331;51.992;20.910;2022-07-25T09:05:37;2.08;;;1.80;;
69220;SDS011;56331;51.992;20.910;2022-07-25T09:10:56;1.90;;;1.70;;
69220;SDS011;56331;51.992;20.910;2022-07-25T09:13:23;3.00;;;1.92;;
69220;SDS011;56331;51.992;20.910;2022-07-25T09:15:51;2.37;;;1.77;;
69220;SDS011;56331;51.992;20.910;2022-07-25T09:18:21;2.35;;;1.72;;
69220;SDS011;56331;51.992;20.910;2022-07-25T09:20:50;3.67;;;1.82;;
69220;SDS011;56331;51.992;20.910;2022-07-25T09:31:30;1.87;;;1.60;;
69220;SDS011;56331;51.992;20.910;2022-07-25T09:33:55;2.37;;;1.98;;
69220;SDS011;56331;51.992;20.910;2022-07-25T09:36:23;2.22;;;1.80;;
69220;SDS011;56331;51.992;20.910;2022-07-25T09:38:51;2.58;;;1.95;;
69220;SDS011;56331;51.992;20.910;2022-07-25T09:41:21;2.75;;;1.50;;
69220;SDS011;56331;51.992;20.910;2022-07-25T09:43:50;2.37;;;1.77;;
69220;SDS011;56331;51.992;20.910;2022-07-25T09:46:17;1.92;;;1.52;;
69220;SDS011;56331;51.992;20.910;2022-07-25T09:48:54;1.95;;;1.60;;
69220;SDS011;56331;51.992;20.910;2022-07-25T09:51:17;2.72;;;1.87;;
69220;SDS011;56331;51.992;20.910;2022-07-25T09:53:44;1.95;;;1.70;;
69220;SDS011;56331;51.992;20.910;2022-07-25T09:56:11;1.77;;;1.65;;
69220;SDS011;56331;51.992;20.910;2022-07-25T09:58:38;3.90;;;1.90;;
69220;SDS011;56331;51.992;20.910;2022-07-25T10:01:06;2.10;;;1.77;;
69220;SDS011;56331;51.992;20.910;2022-07-25T10:06:10;1.92;;;1.72;;
69220;SDS011;56331;51.992;20.910;2022-07-25T10:08:40;1.85;;;1.50;;
69220;SDS011;56331;51.992;20.910;2022-07-25T10:11:24;2.12;;;1.60;;
69220;SDS011;56331;51.992;20.910;2022-07-25T10:13:52;2.47;;;1.77;;
69220;SDS011;56331;51.992;20.910;2022-07-25T10:16:20;2.55;;;1.65;;
69220;SDS011;56331;51.992;20.910;2022-07-25T10:18:49;1.80;;;1.50;;
69220;SDS011;56331;51.992;20.910;2022-07-25T10:21:17;1.80;;;1.60;;
69220;SDS011;56331;51.992;20.910;2022-07-25T10:23:44;2.45;;;1.57;;
69220;SDS011;56331;51.992;20.910;2022-07-25T10:26:13;1.92;;;1.72;;
69220;SDS011;56331;51.992;20.910;2022-07-25T10:28:51;1.90;;;1.70;;
69220;SDS011;56331;51.992;20.910;2022-07-25T10:33:53;2.42;;;1.90;;
69220;SDS011;56331;51.992;20.910;2022-07-25T10:36:22;1.95;;;1.80;;
69220;SDS011;56331;51.992;20.910;2022-07-25T10:38:51;2.87;;;2.02;;
69220;SDS011;56331;51.992;20.910;2022-07-25T10:41:22;2.22;;;1.80;;
69220;SDS011;56331;51.992;20.910;2022-07-25T10:43:51;3.60;;;2.15;;
69220;SDS011;56331;51.992;20.910;2022-07-25T10:46:33;2.70;;;1.90;;
69220;SDS011;56331;51.992;20.910;2022-07-25T10:49:04;3.42;;;1.98;;
69220;SDS011;56331;51.992;20.910;2022-07-25T10:51:33;2.10;;;1.90;;
69220;SDS011;56331;51.992;20.910;2022-07-25T10:54:11;4.30;;;1.90;;
69220;SDS011;56331;51.992;20.910;2022-07-25T10:56:49;2.27;;;1.90;;
69220;SDS011;56331;51.992;20.910;2022-07-25T11:01:54;2.12;;;1.92;;
69220;SDS011;56331;51.992;20.910;2022-07-25T11:04:21;3.45;;;1.80;;
69220;SDS011;56331;51.992;20.910;2022-07-25T11:06:49;3.35;;;2.30;;
69220;SDS011;56331;51.992;20.910;2022-07-25T11:09:22;3.90;;;1.87;;
69220;SDS011;56331;51.992;20.910;2022-07-25T11:11:52;2.22;;;1.90;;
69220;SDS011;56331;51.992;20.910;2022-07-25T11:14:22;2.75;;;1.82;;
69220;SDS011;56331;51.992;20.910;2022-07-25T11:17:08;2.98;;;1.85;;
69220;SDS011;56331;51.992;20.910;2022-07-25T11:19:43;2.98;;;1.95;;
69220;SDS011;56331;51.992;20.910;2022-07-25T11:22:25;2.30;;;1.80;;
69220;SDS011;56331;51.992;20.910;2022-07-25T11:24:52;3.85;;;2.15;;
69220;SDS011;56331;51.992;20.910;2022-07-25T11:27:20;2.25;;;2.05;;
69220;SDS011;56331;51.992;20.910;2022-07-25T11:29:49;1.70;;;1.60;;
69220;SDS011;56331;51.992;20.910;2022-07-25T11:32:16;2.90;;;2.02;;
69220;SDS011;56331;51.992;20.910;2022-07-25T11:34:52;1.82;;;1.72;;
69220;SDS011;56331;51.992;20.910;2022-07-25T11:37:15;2.10;;;1.90;;
69220;SDS011;56331;51.992;20.910;2022-07-25T11:39:43;2.05;;;1.85;;
69220;SDS011;56331;51.992;20.910;2022-07-25T11:42:12;2.45;;;1.90;;
69220;SDS011;56331;51.992;20.910;2022-07-25T11:44:45;2.00;;;1.80;;
69220;SDS011;56331;51.992;20.910;2022-07-25T11:47:29;5.58;;;1.80;;
69220;SDS011;56331;51.992;20.910;2022-07-25T11:52:28;3.17;;;1.80;;
69220;SDS011;56331;51.992;20.910;2022-07-25T11:54:58;2.30;;;1.82;;
69220;SDS011;56331;51.992;20.910;2022-07-25T11:57:31;3.58;;;1.82;;
69220;SDS011;56331;51.992;20.910;2022-07-25T12:00:00;2.37;;;1.62;;
69220;SDS011;56331;51.992;20.910;2022-07-25T12:02:32;2.92;;;1.82;;
69220;SDS011;56331;51.992;20.910;2022-07-25T12:05:04;2.17;;;1.70;;
69220;SDS011;56331;51.992;20.910;2022-07-25T12:10:07;3.33;;;1.77;;
69220;SDS011;56331;51.992;20.910;2022-07-25T12:12:42;3.67;;;2.33;;
69220;SDS011;56331;51.992;20.910;2022-07-25T12:15:10;1.67;;;1.57;;
69220;SDS011;56331;51.992;20.910;2022-07-25T12:17:41;1.90;;;1.52;;
69220;SDS011;56331;51.992;20.910;2022-07-25T12:20:12;1.82;;;1.50;;
69220;SDS011;56331;51.992;20.910;2022-07-25T12:22:40;1.57;;;1.47;;
69220;SDS011;56331;51.992;20.910;2022-07-25T12:25:08;2.77;;;1.60;;
69220;SDS011;56331;51.992;20.910;2022-07-25T12:27:36;1.65;;;1.40;;
69220;SDS011;56331;51.992;20.910;2022-07-25T12:30:03;3.05;;;1.62;;
69220;SDS011;56331;51.992;20.910;2022-07-25T12:32:31;2.27;;;1.80;;
69220;SDS011;56331;51.992;20.910;2022-07-25T12:34:58;2.02;;;1.75;;
69220;SDS011;56331;51.992;20.910;2022-07-25T12:37:25;1.90;;;1.60;;
69220;SDS011;56331;51.992;20.910;2022-07-25T12:39:52;2.15;;;1.62;;
69220;SDS011;56331;51.992;20.910;2022-07-25T12:42:19;3.27;;;1.90;;
69220;SDS011;56331;51.992;20.910;2022-07-25T12:44:46;2.00;;;1.60;;
69220;SDS011;56331;51.992;20.910;2022-07-25T12:47:12;3.17;;;1.70;;
69220;SDS011;56331;51.992;20.910;2022-07-25T12:49:38;2.08;;;1.80;;
69220;SDS011;56331;51.992;20.910;2022-07-25T12:52:06;1.50;;;1.40;;
69220;SDS011;56331;51.992;20.910;2022-07-25T12:54:32;2.00;;;1.80;;
69220;SDS011;56331;51.992;20.910;2022-07-25T12:57:02;1.98;;;1.67;;
69220;SDS011;56331;51.992;20.910;2022-07-25T12:59:29;3.08;;;1.70;;
69220;SDS011;56331;51.992;20.910;2022-07-25T13:01:56;2.22;;;1.87;;
69220;SDS011;56331;51.992;20.910;2022-07-25T13:04:22;2.00;;;1.80;;
69220;SDS011;56331;51.992;20.910;2022-07-25T13:06:51;2.72;;;1.70;;
69220;SDS011;56331;51.992;20.910;2022-07-25T13:09:20;2.27;;;1.52;;
69220;SDS011;56331;51.992;20.910;2022-07-25T13:11:48;2.10;;;1.67;;
69220;SDS011;56331;51.992;20.910;2022-07-25T13:14:15;3.98;;;1.60;;
69220;SDS011;56331;51.992;20.910;2022-07-25T13:16:44;2.98;;;1.67;;
69220;SDS011;56331;51.992;20.910;2022-07-25T13:19:12;3.62;;;1.77;;
69220;SDS011;56331;51.992;20.910;2022-07-25T13:21:39;4.90;;;1.60;;
69220;SDS011;56331;51.992;20.910;2022-07-25T13:24:08;3.77;;;1.52;;
69220;SDS011;56331;51.992;20.910;2022-07-25T13:26:37;1.98;;;1.72;;
69220;SDS011;56331;51.992;20.910;2022-07-25T13:29:04;3.45;;;1.60;;
69220;SDS011;56331;51.992;20.910;2022-07-25T13:31:34;4.83;;;1.92;;
69220;SDS011;56331;51.992;20.910;2022-07-25T13:34:05;2.30;;;1.72;;
69220;SDS011;56331;51.992;20.910;2022-07-25T13:36:33;1.85;;;1.47;;
69220;SDS011;56331;51.992;20.910;2022-07-25T13:39:01;4.75;;;1.90;;
69220;SDS011;56331;51.992;20.910;2022-07-25T13:41:30;4.78;;;1.60;;
69220;SDS011;56331;51.992;20.910;2022-07-25T13:43:59;2.25;;;1.60;;
69220;SDS011;56331;51.992;20.910;2022-07-25T13:46:25;2.60;;;1.70;;
69220;SDS011;56331;51.992;20.910;2022-07-25T13:48:53;3.58;;;1.65;;
69220;SDS011;56331;51.992;20.910;2022-07-25T13:51:21;3.90;;;1.47;;
69220;SDS011;56331;51.992;20.910;2022-07-25T13:53:48;1.95;;;1.67;;
69220;SDS011;56331;51.992;20.910;2022-07-25T13:56:15;4.58;;;1.98;;
69220;SDS011;56331;51.992;20.910;2022-07-25T13:58:41;1.90;;;1.52;;
69220;SDS011;56331;51.992;20.910;2022-07-25T14:01:08;3.70;;;1.70;;
69220;SDS011;56331;51.992;20.910;2022-07-25T14:03:36;2.33;;;1.50;;
69220;SDS011;56331;51.992;20.910;2022-07-25T14:06:03;2.27;;;1.60;;
69220;SDS011;56331;51.992;20.910;2022-07-25T14:08:30;2.58;;;1.65;;
69220;SDS011;56331;51.992;20.910;2022-07-25T14:10:57;2.65;;;1.50;;
69220;SDS011;56331;51.992;20.910;2022-07-25T14:13:23;3.05;;;1.65;;
69220;SDS011;56331;51.992;20.910;2022-07-25T14:15:50;1.95;;;1.55;;
69220;SDS011;56331;51.992;20.910;2022-07-25T14:18:17;1.70;;;1.25;;
69220;SDS011;56331;51.992;20.910;2022-07-25T14:20:44;1.50;;;1.40;;
69220;SDS011;56331;51.992;20.910;2022-07-25T14:23:14;5.33;;;1.80;;
69220;SDS011;56331;51.992;20.910;2022-07-25T14:25:40;3.52;;;1.50;;
69220;SDS011;56331;51.992;20.910;2022-07-25T14:28:07;1.75;;;1.20;;
69220;SDS011;56331;51.992;20.910;2022-07-25T14:30:34;2.90;;;1.40;;
69220;SDS011;56331;51.992;20.910;2022-07-25T14:33:01;2.02;;;1.50;;
69220;SDS011;56331;51.992;20.910;2022-07-25T14:35:29;3.15;;;1.60;;
69220;SDS011;56331;51.992;20.910;2022-07-25T14:37:55;2.55;;;1.62;;
69220;SDS011;56331;51.992;20.910;2022-07-25T14:40:22;2.67;;;1.27;;
69220;SDS011;56331;51.992;20.910;2022-07-25T14:42:49;1.67;;;1.57;;
69220;SDS011;56331;51.992;20.910;2022-07-25T14:45:16;3.33;;;1.50;;
69220;SDS011;56331;51.992;20.910;2022-07-25T14:47:44;1.77;;;1.50;;
69220;SDS011;56331;51.992;20.910;2022-07-25T14:50:10;1.98;;;1.32;;
69220;SDS011;56331;51.992;20.910;2022-07-25T14:52:37;1.60;;;1.30;;
69220;SDS011;56331;51.992;20.910;2022-07-25T14:55:04;2.75;;;1.72;;
69220;SDS011;56331;51.992;20.910;2022-07-25T14:57:31;1.42;;;1.30;;
69220;SDS011;56331;51.992;20.910;2022-07-25T14:59:59;1.47;;;1.37;;
69220;SDS011;56331;51.992;20.910;2022-07-25T15:02:27;1.50;;;1.40;;
69220;SDS011;56331;51.992;20.910;2022-07-25T15:04:53;2.95;;;1.50;;
69220;SDS011;56331;51.992;20.910;2022-07-25T15:07:20;1.92;;;1.45;;
69220;SDS011;56331;51.992;20.910;2022-07-25T15:09:47;2.22;;;1.60;;
69220;SDS011;56331;51.992;20.910;2022-07-25T15:12:13;1.85;;;1.70;;
69220;SDS011;56331;51.992;20.910;2022-07-25T15:14:40;1.70;;;1.60;;
69220;SDS011;56331;51.992;20.910;2022-07-25T15:17:08;3.35;;;1.70;;